Time;durP1;ratioP1;P1;durP2;ratioP2;P2;SDS_P1;SDS_P2;PMS_P1;PMS_P2;Temp;Humidity;BMP_temperature;BMP_pressure;BME280_temperature;BME280_humidity;BME280_pressure;Samples;Min_cycle;Max_cycle;Signal;HPM_P1;HPM_P2
2023/06/11 00:01:52;;;;;;;8.00;5.72;;;;;;;15.19;97.43;97087.88;5036911;28;20495;-61
2023/06/11 00:04:24;;;;;;;8.40;5.60;;;;;;;15.08;99.39;97079.78;5029386;28;20289;-61
2023/06/11 00:06:53;;;;;;;7.88;5.75;;;;;;;15.14;98.37;97079.75;5036151;28;20061;-61
2023/06/11 00:09:22;;;;;;;6.85;5.13;;;;;;;15.27;97.25;97081.78;5041831;28;20092;-60
2023/06/11 00:11:48;;;;;;;7.88;5.10;;;;;;;15.24;97.42;97078.81;5036654;28;20099;-61
2023/06/11 00:14:15;;;;;;;8.25;5.70;;;;;;;15.08;98.34;97077.06;5026203;28;20046;-60
2023/06/11 00:16:43;;;;;;;8.68;5.68;;;;;;;15.12;98.16;97080.03;5028535;28;20041;-60
2023/06/11 00:19:11;;;;;;;8.65;5.82;;;;;;;15.09;98.40;97083.34;5034375;28;20045;-61
2023/06/11 00:21:43;;;;;;;8.68;5.95;;;;;;;15.05;98.26;97079.56;5031210;28;20033;-61
2023/06/11 00:24:11;;;;;;;;;;;;;;;14.90;99.49;97080.53;5028387;28;20064;-61
2023/06/11 00:26:38;;;;;;;9.20;6.38;;;;;;;14.77;100.00;97082.81;5043003;28;19971;-61
2023/06/11 00:29:05;;;;;;;7.63;5.65;;;;;;;14.71;100.00;97081.22;5039721;28;20069;-61
2023/06/11 00:31:32;;;;;;;7.65;5.85;;;;;;;14.69;100.00;97083.41;5026576;28;20033;-61
2023/06/11 00:34:02;;;;;;;11.27;6.57;;;;;;;14.63;100.00;97077.19;5038041;28;20091;-61
2023/06/11 00:36:29;;;;;;;8.97;6.20;;;;;;;14.67;100.00;97075.50;5029478;28;20045;-62
2023/06/11 00:38:56;;;;;;;7.80;5.60;;;;;;;14.68;100.00;97076.31;5029441;28;20056;-61
2023/06/11 00:41:29;;;;;;;;;;;;;;;14.60;100.00;97076.94;5033723;28;19921;-61
2023/06/11 00:43:56;;;;;;;7.00;5.32;;;;;;;14.62;100.00;97086.47;5027818;28;20551;-61
2023/06/11 00:46:24;;;;;;;8.88;6.03;;;;;;;14.63;100.00;97077.19;5029415;28;20049;-61
2023/06/11 00:48:51;;;;;;;16.38;6.63;;;;;;;14.52;100.00;97090.06;5036788;28;20501;-61
2023/06/11 00:51:21;;;;;;;8.98;6.55;;;;;;;14.50;100.00;97084.09;5037378;28;20120;-61
2023/06/11 00:53:47;;;;;;;7.32;5.47;;;;;;;14.56;100.00;97082.16;5033114;28;20038;-60
2023/06/11 00:56:17;;;;;;;8.80;5.78;;;;;;;14.63;100.00;97079.91;5033659;28;20052;-61
2023/06/11 00:58:45;;;;;;;9.60;6.05;;;;;;;14.73;100.00;97076.28;5042478;28;20117;-60
2023/06/11 01:01:17;;;;;;;8.52;5.43;;;;;;;14.75;100.00;97086.91;5031265;28;20415;-61
2023/06/11 01:03:43;;;;;;;8.95;6.00;;;;;;;14.53;100.00;97080.00;5035968;28;20106;-60
2023/06/11 01:06:17;;;;;;;8.82;6.07;;;;;;;14.53;100.00;97080.78;5027415;28;20044;-60
2023/06/11 01:08:52;;;;;;;8.73;5.90;;;;;;;14.42;100.00;97080.06;5027029;28;19927;-61
2023/06/11 01:11:22;;;;;;;10.05;6.97;;;;;;;14.53;100.00;97083.50;5035465;28;20508;-61
2023/06/11 01:13:54;;;;;;;8.00;5.72;;;;;;;14.57;100.00;97078.34;5026145;28;20049;-61
2023/06/11 01:16:42;;;;;;;7.43;5.47;;;;;;;14.40;100.00;97085.00;5029163;28;20381;-61
2023/06/11 01:19:28;;;;;;;9.57;5.57;;;;;;;14.52;100.00;97089.28;5026648;28;20569;-61
2023/06/11 01:22:00;;;;;;;10.43;6.43;;;;;;;14.61;100.00;97087.56;5032805;28;20067;-61
2023/06/11 01:24:53;;;;;;;8.77;6.28;;;;;;;14.49;100.00;97095.28;5037228;28;20088;-61
2023/06/11 01:27:29;;;;;;;;;;;;;;;14.47;100.00;97095.56;5031252;28;20034;-61
2023/06/11 01:29:58;;;;;;;8.57;5.73;;;;;;;14.43;100.00;97092.59;5025551;28;19999;-61
2023/06/11 01:32:27;;;;;;;8.15;6.10;;;;;;;14.55;100.00;97089.50;5030023;28;21623;-61
2023/06/11 01:35:03;;;;;;;11.77;5.95;;;;;;;14.65;100.00;97091.34;5039357;28;20075;-61
2023/06/11 01:37:45;;;;;;;7.97;6.10;;;;;;;14.69;100.00;97092.41;5026833;28;20045;-61
2023/06/11 01:40:14;;;;;;;9.00;5.85;;;;;;;14.61;100.00;97097.63;5030237;28;20045;-61
2023/06/11 01:42:47;;;;;;;9.20;5.93;;;;;;;14.57;100.00;97095.47;5024259;28;20041;-60
2023/06/11 01:45:13;;;;;;;10.43;6.95;;;;;;;14.52;100.00;97084.63;5047388;28;20034;-61
2023/06/11 01:47:40;;;;;;;8.32;6.25;;;;;;;14.38;100.00;97087.16;5035661;28;20052;-61
2023/06/11 01:50:08;;;;;;;10.13;6.60;;;;;;;14.27;100.00;97083.72;5035716;28;20451;-61
2023/06/11 01:52:35;;;;;;;9.30;6.20;;;;;;;14.10;100.00;97083.28;5031406;28;20128;-61
2023/06/11 01:55:02;;;;;;;10.05;6.72;;;;;;;14.09;100.00;97084.38;5030790;28;20393;-61
2023/06/11 01:57:29;;;;;;;8.37;5.77;;;;;;;14.13;100.00;97090.91;5029288;28;20037;-60
2023/06/11 01:59:56;;;;;;;12.30;6.30;;;;;;;14.29;100.00;97086.97;5033445;28;20061;-62
2023/06/11 02:02:22;;;;;;;8.27;6.35;;;;;;;14.43;100.00;97089.88;5031011;28;20045;-61
2023/06/11 02:04:49;;;;;;;12.35;6.55;;;;;;;14.33;100.00;97089.16;5031669;28;20084;-62
2023/06/11 02:07:15;;;;;;;8.52;5.90;;;;;;;14.30;100.00;97091.31;5024314;28;20037;-61
2023/06/11 02:09:42;;;;;;;8.50;6.25;;;;;;;14.11;100.00;97085.72;5027293;28;20585;-61
2023/06/11 02:12:09;;;;;;;8.63;6.50;;;;;;;13.98;100.00;97084.47;5031803;28;20037;-62
2023/06/11 02:14:35;;;;;;;8.30;6.40;;;;;;;14.05;100.00;97078.72;5034945;28;20046;-62
2023/06/11 02:17:02;;;;;;;8.90;6.50;;;;;;;14.03;100.00;97083.59;5031279;28;20077;-62
2023/06/11 02:19:33;;;;;;;;;;;;;;;13.88;100.00;97084.50;5028814;28;20044;-61
2023/06/11 02:22:00;;;;;;;10.23;6.75;;;;;;;13.89;100.00;97086.94;5028443;28;19956;-62
2023/06/11 02:24:26;;;;;;;9.60;7.45;;;;;;;13.80;100.00;97096.81;5036936;28;20467;-62
2023/06/11 02:26:53;;;;;;;10.73;8.23;;;;;;;13.91;100.00;97090.22;5025262;28;20678;-62
2023/06/11 02:29:20;;;;;;;9.70;7.28;;;;;;;13.97;100.00;97098.34;5026932;28;20040;-61
2023/06/11 02:31:46;;;;;;;9.07;6.65;;;;;;;14.03;100.00;97097.22;5030168;28;20128;-62
2023/06/11 02:34:13;;;;;;;11.20;6.70;;;;;;;14.07;100.00;97097.47;5030456;28;20443;-62
2023/06/11 02:36:40;;;;;;;8.55;6.57;;;;;;;14.00;100.00;97097.78;5030196;28;20046;-62
2023/06/11 02:39:07;;;;;;;9.25;6.22;;;;;;;14.03;100.00;97095.31;5028922;28;20489;-62
2023/06/11 02:41:34;;;;;;;9.50;6.78;;;;;;;14.12;100.00;97103.69;5024081;28;20088;-61
2023/06/11 02:44:00;;;;;;;8.77;6.65;;;;;;;14.09;100.00;97106.16;5032926;28;20041;-61
2023/06/11 02:46:27;;;;;;;9.90;6.78;;;;;;;14.10;100.00;97108.63;5034973;28;20047;-61
2023/06/11 02:48:53;;;;;;;9.60;7.05;;;;;;;14.13;100.00;97108.06;5028807;28;20037;-61
2023/06/11 02:51:20;;;;;;;9.98;7.15;;;;;;;14.02;100.00;97115.47;5025401;28;20321;-61
2023/06/11 02:53:46;;;;;;;10.88;6.60;;;;;;;14.09;100.00;97107.00;5041121;28;20011;-61
2023/06/11 02:56:13;;;;;;;9.88;6.72;;;;;;;14.20;100.00;97109.63;5031896;28;20136;-61
2023/06/11 02:58:40;;;;;;;8.57;6.32;;;;;;;14.12;100.00;97111.06;5035218;28;20087;-61
2023/06/11 03:01:06;;;;;;;9.82;7.47;;;;;;;14.12;100.00;97114.56;5029644;28;20052;-61
2023/06/11 03:03:33;;;;;;;10.18;7.13;;;;;;;14.15;100.00;97119.47;5024606;28;20634;-61
2023/06/11 03:06:00;;;;;;;10.18;6.75;;;;;;;14.13;100.00;97118.13;5024620;28;20443;-61
2023/06/11 03:08:28;;;;;;;8.52;6.40;;;;;;;14.11;100.00;97118.41;5022554;28;20083;-61
2023/06/11 03:10:54;;;;;;;9.40;7.07;;;;;;;13.83;100.00;97122.63;5025056;28;20095;-61
2023/06/11 03:13:21;;;;;;;11.45;8.18;;;;;;;13.67;100.00;97130.06;5035769;28;20259;-61
2023/06/11 03:15:50;;;;;;;8.90;7.07;;;;;;;13.68;100.00;97132.50;5039042;28;20189;-61
2023/06/11 03:18:17;;;;;;;10.40;7.25;;;;;;;13.56;100.00;97126.56;5025433;28;20416;-62
2023/06/11 03:20:43;;;;;;;12.13;7.05;;;;;;;13.52;100.00;97127.09;5033585;28;20054;-61
2023/06/11 03:23:10;;;;;;;9.63;7.13;;;;;;;13.47;100.00;97123.56;5022625;28;20099;-61
2023/06/11 03:25:39;;;;;;;9.82;7.35;;;;;;;13.51;100.00;97130.94;5024462;28;20038;-60
2023/06/11 03:28:06;;;;;;;10.63;7.53;;;;;;;13.69;100.00;97133.31;5022990;28;20045;-61
2023/06/11 03:30:32;;;;;;;14.35;8.82;;;;;;;13.63;100.00;97138.78;5023909;28;20068;-61
2023/06/11 03:33:00;;;;;;;10.02;7.35;;;;;;;13.58;100.00;97138.78;5028876;28;20061;-61
2023/06/11 03:35:27;;;;;;;10.23;7.80;;;;;;;13.61;100.00;97138.25;5031960;28;20151;-61
2023/06/11 03:37:54;;;;;;;9.65;7.82;;;;;;;13.65;100.00;97144.72;5027159;28;20042;-61
2023/06/11 03:40:24;;;;;;;9.05;7.25;;;;;;;13.67;100.00;97143.66;5029067;28;20036;-61
2023/06/11 03:42:53;;;;;;;9.80;7.32;;;;;;;13.68;100.00;97137.94;5027824;28;20049;-61
2023/06/11 03:45:19;;;;;;;8.88;7.05;;;;;;;13.65;100.00;97142.00;5024283;28;20045;-61
2023/06/11 03:47:46;;;;;;;11.70;7.57;;;;;;;13.67;100.00;97143.66;5030752;28;20040;-61
2023/06/11 03:50:12;;;;;;;9.98;7.22;;;;;;;13.75;100.00;97143.09;5035984;28;20055;-61
2023/06/11 03:52:40;;;;;;;12.60;7.80;;;;;;;13.94;100.00;97151.44;5034755;28;20095;-61
2023/06/11 03:55:07;;;;;;;9.73;6.80;;;;;;;13.79;100.00;97147.69;5029522;28;20516;-62
2023/06/11 03:57:34;;;;;;;11.80;7.00;;;;;;;13.88;100.00;97142.47;5024553;28;20065;-61
2023/06/11 04:00:01;;;;;;;10.05;7.70;;;;;;;13.82;100.00;97140.88;5028680;28;20541;-61
2023/06/11 04:02:28;;;;;;;11.20;7.40;;;;;;;13.86;100.00;97149.31;5028927;28;20068;-62
2023/06/11 04:04:55;;;;;;;10.70;7.40;;;;;;;13.74;100.00;97150.44;5034131;28;20059;-61
2023/06/11 04:07:22;;;;;;;11.40;8.40;;;;;;;13.85;100.00;97150.38;5035271;28;20049;-61
2023/06/11 04:09:48;;;;;;;10.38;7.88;;;;;;;13.91;100.00;97154.72;5043294;28;20266;-61
2023/06/11 04:12:15;;;;;;;11.32;7.50;;;;;;;14.02;100.00;97160.91;5031855;28;20268;-61
2023/06/11 04:14:42;;;;;;;9.70;7.85;;;;;;;14.09;100.00;97164.16;5041407;28;20080;-61
2023/06/11 04:17:08;;;;;;;10.37;8.20;;;;;;;14.09;100.00;97157.91;5035358;28;21613;-61
2023/06/11 04:19:36;;;;;;;10.00;7.30;;;;;;;14.26;100.00;97161.06;5035973;28;20078;-60
2023/06/11 04:22:02;;;;;;;9.93;7.38;;;;;;;14.40;100.00;97153.09;5026035;28;20133;-60
2023/06/11 04:24:29;;;;;;;8.80;6.35;;;;;;;14.43;100.00;97160.69;5026173;28;20131;-60
2023/06/11 04:26:56;;;;;;;11.05;7.10;;;;;;;14.41;100.00;97157.44;5026110;28;20038;-61
2023/06/11 04:29:23;;;;;;;9.10;7.28;;;;;;;14.44;100.00;97158.78;5026863;28;20065;-60
2023/06/11 04:31:52;;;;;;;10.90;7.47;;;;;;;14.49;100.00;97150.56;5027263;28;20045;-61
2023/06/11 04:34:20;;;;;;;9.98;7.45;;;;;;;14.53;100.00;97159.00;5034455;28;20068;-60
2023/06/11 04:36:48;;;;;;;13.45;7.07;;;;;;;14.64;100.00;97160.56;5030854;28;20045;-62
2023/06/11 04:39:15;;;;;;;9.15;7.28;;;;;;;14.83;100.00;97157.19;5031117;28;20404;-61
2023/06/11 04:41:41;;;;;;;10.15;6.93;;;;;;;15.02;100.00;97156.47;5026452;28;20049;-62
2023/06/11 04:44:08;;;;;;;9.20;7.22;;;;;;;15.20;100.00;97157.66;5025321;28;20069;-62
2023/06/11 04:46:35;;;;;;;10.13;7.05;;;;;;;15.43;100.00;97152.53;5032807;28;20424;-62
2023/06/11 04:49:06;;;;;;;9.88;6.95;;;;;;;15.64;100.00;97160.47;5026998;28;20132;-61
2023/06/11 04:51:33;;;;;;;9.60;6.80;;;;;;;15.84;100.00;97162.16;5037149;28;20041;-61
2023/06/11 04:54:01;;;;;;;9.50;6.55;;;;;;;15.89;100.00;97162.13;5033786;28;20526;-62
2023/06/11 04:56:31;;;;;;;8.50;6.10;;;;;;;16.04;100.00;97163.88;5030844;28;20037;-60
2023/06/11 04:58:58;;;;;;;9.65;7.07;;;;;;;16.09;100.00;97166.53;5026177;28;20350;-62
2023/06/11 05:01:30;;;;;;;9.05;6.75;;;;;;;16.21;99.04;97166.09;5027890;28;20538;-62
2023/06/11 05:03:57;;;;;;;6.95;5.68;;;;;;;16.37;97.10;97174.09;5027744;28;20064;-62
2023/06/11 05:06:24;;;;;;;7.63;6.25;;;;;;;16.55;95.91;97174.38;5033722;28;20037;-62
2023/06/11 05:08:52;;;;;;;9.10;6.25;;;;;;;16.66;94.71;97180.50;5033449;28;20599;-62
2023/06/11 05:11:19;;;;;;;9.60;7.15;;;;;;;16.75;94.07;97174.06;5033341;28;20530;-62
2023/06/11 05:13:46;;;;;;;8.75;5.88;;;;;;;16.82;93.42;97176.44;5029237;28;20099;-61
2023/06/11 05:16:12;;;;;;;7.93;6.30;;;;;;;16.81;93.77;97172.03;5037923;28;20048;-62
2023/06/11 05:18:39;;;;;;;10.02;6.25;;;;;;;16.89;93.23;97176.84;5026491;28;20041;-61
2023/06/11 05:21:09;;;;;;;8.70;6.72;;;;;;;16.99;93.33;97169.59;5026029;28;20429;-62
2023/06/11 05:23:36;;;;;;;7.93;5.90;;;;;;;17.10;93.15;97171.06;5025171;28;20293;-62
2023/06/11 05:26:12;;;;;;;8.68;6.20;;;;;;;17.22;92.50;97181.56;5027012;28;20128;-61
2023/06/11 05:28:42;;;;;;;7.93;6.07;;;;;;;17.32;91.49;97172.31;5032887;28;20597;-61
2023/06/11 05:31:12;;;;;;;9.48;5.80;;;;;;;17.42;91.22;97180.38;5032508;28;20045;-61
2023/06/11 05:33:42;;;;;;;8.20;5.72;;;;;;;17.49;90.95;97182.69;5035173;28;20511;-62
2023/06/11 05:36:08;;;;;;;7.72;6.00;;;;;;;17.60;90.88;97185.25;5027005;28;20046;-61
2023/06/11 05:38:37;;;;;;;7.28;5.72;;;;;;;17.70;90.45;97189.72;5025203;28;20504;-61
2023/06/11 05:41:04;;;;;;;8.80;5.93;;;;;;;17.77;89.23;97184.66;5025361;28;20528;-60
2023/06/11 05:43:31;;;;;;;7.38;5.68;;;;;;;17.86;88.85;97185.56;5033797;28;20561;-61
2023/06/11 05:45:58;;;;;;;7.82;6.10;;;;;;;18.03;87.63;97184.13;5032879;28;20067;-61
2023/06/11 05:48:26;;;;;;;8.07;5.68;;;;;;;18.09;87.04;97182.13;5038055;28;20092;-61
2023/06/11 05:50:53;;;;;;;8.23;5.55;;;;;;;18.22;86.65;97185.97;5025875;28;20041;-61
2023/06/11 05:53:20;;;;;;;7.53;5.90;;;;;;;18.28;86.54;97185.53;5025475;28;20512;-62
2023/06/11 05:55:47;;;;;;;8.38;5.90;;;;;;;18.34;86.29;97186.25;5029638;28;20357;-62
2023/06/11 05:58:14;;;;;;;7.20;5.55;;;;;;;18.42;86.40;97185.53;5023812;28;20045;-62
2023/06/11 06:00:45;;;;;;;6.80;5.30;;;;;;;18.56;85.34;97184.66;5029123;28;20072;-62
2023/06/11 06:03:11;;;;;;;9.02;5.60;;;;;;;18.55;85.49;97192.09;5031744;28;20043;-61
2023/06/11 06:05:38;;;;;;;6.60;5.35;;;;;;;18.59;84.50;97195.84;5034669;28;20045;-62
2023/06/11 06:08:05;;;;;;;8.23;5.55;;;;;;;18.65;84.86;97202.00;5029186;28;20061;-61
2023/06/11 06:10:32;;;;;;;7.13;5.47;;;;;;;18.62;84.31;97199.91;5025110;28;20392;-61
2023/06/11 06:12:59;;;;;;;6.50;5.32;;;;;;;18.69;83.66;97202.22;5024583;28;20041;-61
2023/06/11 06:15:25;;;;;;;6.60;5.18;;;;;;;18.79;82.62;97203.91;5023951;28;20053;-61
2023/06/11 06:17:52;;;;;;;8.07;5.90;;;;;;;18.94;83.42;97202.75;5031069;28;20044;-61
2023/06/11 06:20:27;;;;;;;9.07;5.40;;;;;;;19.04;82.73;97199.75;5032194;28;20328;-61
2023/06/11 06:22:54;;;;;;;7.28;5.50;;;;;;;19.17;81.72;97197.28;5034410;28;20045;-61
2023/06/11 06:25:24;;;;;;;6.85;5.07;;;;;;;19.31;79.21;97210.94;5026532;28;20479;-62
2023/06/11 06:27:51;;;;;;;7.95;5.68;;;;;;;19.14;79.47;97206.13;5037271;28;20518;-61
2023/06/11 06:30:18;;;;;;;6.30;4.90;;;;;;;19.35;79.95;97212.72;5030796;28;20132;-60
2023/06/11 06:32:45;;;;;;;7.97;5.20;;;;;;;19.44;78.63;97210.03;5033836;28;20063;-61
2023/06/11 06:35:13;;;;;;;5.95;4.82;;;;;;;19.55;78.82;97209.75;5029356;28;20051;-61
2023/06/11 06:37:40;;;;;;;7.38;5.35;;;;;;;19.67;78.36;97212.72;5026963;28;20068;-61
2023/06/11 06:40:07;;;;;;;6.80;5.35;;;;;;;19.86;76.41;97214.41;5025335;28;20095;-61
2023/06/11 06:42:34;;;;;;;6.88;5.13;;;;;;;19.98;75.96;97216.56;5027195;28;20064;-61
2023/06/11 06:45:03;;;;;;;5.82;4.78;;;;;;;20.00;75.76;97219.84;5036540;28;20044;-62
2023/06/11 06:47:30;;;;;;;6.53;5.00;;;;;;;19.98;74.94;97211.06;5033554;28;20047;-61
2023/06/11 06:49:57;;;;;;;9.35;5.75;;;;;;;20.09;75.90;97220.66;5027100;28;20087;-62
2023/06/11 06:52:23;;;;;;;7.68;5.40;;;;;;;20.16;73.64;97213.91;5023400;28;20038;-61
2023/06/11 06:54:51;;;;;;;6.35;4.80;;;;;;;20.21;74.42;97216.50;5031003;28;20507;-62
2023/06/11 06:57:18;;;;;;;7.80;5.18;;;;;;;20.27;73.69;97216.03;5025241;28;20503;-60
2023/06/11 06:59:44;;;;;;;6.63;4.97;;;;;;;20.26;72.37;97213.59;5031957;28;20033;-61
2023/06/11 07:02:12;;;;;;;8.23;5.03;;;;;;;20.24;72.25;97207.63;5025787;28;20048;-60
2023/06/11 07:04:41;;;;;;;7.15;4.93;;;;;;;20.37;73.14;97211.34;5025606;28;20467;-61
2023/06/11 07:07:08;;;;;;;7.50;5.47;;;;;;;20.35;72.15;97214.41;5031057;28;20684;-61
2023/06/11 07:09:35;;;;;;;6.57;5.00;;;;;;;20.44;71.82;97217.19;5024226;28;20034;-62
2023/06/11 07:12:02;;;;;;;7.78;5.63;;;;;;;20.53;71.30;97215.25;5028888;28;20080;-61
2023/06/11 07:14:30;;;;;;;7.68;4.80;;;;;;;20.56;70.83;97211.06;5024714;28;20073;-61
2023/06/11 07:16:57;;;;;;;7.18;4.82;;;;;;;20.52;70.58;97221.09;5029444;28;20360;-60
2023/06/11 07:19:24;;;;;;;6.55;5.13;;;;;;;20.42;70.44;97226.91;5028615;28;20095;-62
2023/06/11 07:21:51;;;;;;;6.78;4.85;;;;;;;20.48;70.96;97214.59;5007682;28;20045;-62
2023/06/11 07:24:17;;;;;;;6.78;5.18;;;;;;;20.62;70.34;97208.97;5025063;28;20137;-62
2023/06/11 07:26:44;;;;;;;8.45;5.57;;;;;;;20.62;69.73;97218.03;5040726;28;20204;-62
2023/06/11 07:29:12;;;;;;;6.00;5.10;;;;;;;20.73;68.74;97223.22;5025555;28;20114;-62
2023/06/11 07:31:41;;;;;;;6.25;4.60;;;;;;;20.82;69.46;97221.28;5027635;28;20064;-62
2023/06/11 07:34:08;;;;;;;8.45;5.38;;;;;;;20.97;68.35;97216.47;5030811;28;20045;-63
2023/06/11 07:36:35;;;;;;;6.72;4.90;;;;;;;20.94;67.80;97228.09;5017757;28;20640;-62
2023/06/11 07:39:04;;;;;;;7.18;5.18;;;;;;;21.12;67.95;97218.69;5033256;28;20056;-61
2023/06/11 07:41:31;;;;;;;5.63;4.65;;;;;;;21.17;66.47;97224.06;5038087;28;20589;-61
2023/06/11 07:43:57;;;;;;;7.03;4.95;;;;;;;21.24;66.78;97226.31;5033273;28;20136;-61
2023/06/11 07:46:24;;;;;;;8.02;5.03;;;;;;;21.29;67.21;97219.81;5012375;28;20128;-61
2023/06/11 07:48:51;;;;;;;8.95;5.22;;;;;;;21.56;66.36;97226.09;5038147;28;20038;-62
2023/06/11 07:51:20;;;;;;;8.15;4.88;;;;;;;21.52;64.25;97223.16;5026959;28;20041;-62
2023/06/11 07:53:50;;;;;;;;;;;;;;;21.54;64.58;97236.63;5027345;28;20072;-61
2023/06/11 07:56:17;;;;;;;6.43;5.63;;;;;;;21.43;64.75;97231.47;5041459;28;20461;-62
2023/06/11 07:58:43;;;;;;;7.43;5.00;;;;;;;21.48;64.81;97224.97;5040615;28;20041;-61
2023/06/11 08:01:10;;;;;;;6.72;4.82;;;;;;;21.62;64.19;97232.22;5036208;28;20518;-61
2023/06/11 08:03:36;;;;;;;6.53;4.40;;;;;;;21.62;64.47;97223.94;5033593;28;20041;-61
2023/06/11 08:06:03;;;;;;;8.50;5.18;;;;;;;21.65;62.98;97226.06;5035336;28;20057;-62
2023/06/11 08:08:30;;;;;;;7.97;5.05;;;;;;;21.70;62.93;97226.69;5027986;28;20627;-62
2023/06/11 08:10:56;;;;;;;8.73;4.93;;;;;;;21.85;62.53;97230.06;5034304;28;20030;-62
2023/06/11 08:13:23;;;;;;;7.20;4.70;;;;;;;21.92;61.67;97232.31;5034424;28;20044;-61
2023/06/11 08:15:50;;;;;;;6.72;4.70;;;;;;;21.85;61.75;97227.31;5030660;28;20053;-62
2023/06/11 08:18:16;;;;;;;7.50;4.95;;;;;;;21.95;61.31;97226.94;5029664;28;20064;-62
2023/06/11 08:20:46;;;;;;;5.93;4.55;;;;;;;21.98;61.09;97224.66;5033037;28;20041;-62
2023/06/11 08:23:12;;;;;;;7.07;4.82;;;;;;;21.99;61.35;97232.59;5035339;28;20422;-63
2023/06/11 08:25:39;;;;;;;6.18;5.07;;;;;;;22.20;60.01;97223.59;5041528;28;20037;-62
2023/06/11 08:28:06;;;;;;;6.38;4.65;;;;;;;22.27;59.45;97228.59;5027902;28;20120;-63
2023/06/11 08:30:32;;;;;;;6.22;4.72;;;;;;;22.32;59.44;97231.16;5030694;28;20033;-63
2023/06/11 08:32:59;;;;;;;6.78;4.93;;;;;;;22.45;59.52;97229.28;5036241;28;20088;-63
2023/06/11 08:35:26;;;;;;;7.70;5.35;;;;;;;22.51;59.90;97216.91;5028490;28;20116;-62
2023/06/11 08:37:52;;;;;;;7.07;4.90;;;;;;;22.34;58.44;97221.38;5032164;28;20462;-62
2023/06/11 08:40:21;;;;;;;7.22;4.75;;;;;;;22.39;59.25;97219.59;5035323;28;20040;-63
2023/06/11 08:42:47;;;;;;;6.95;5.18;;;;;;;22.58;57.86;97219.16;5031220;28;20299;-62
2023/06/11 08:45:14;;;;;;;5.18;4.22;;;;;;;22.71;58.17;97211.78;5034341;28;20033;-63
2023/06/11 08:47:49;;;;;;;6.63;5.07;;;;;;;22.81;57.43;97216.09;5032573;28;20041;-62
2023/06/11 08:50:20;;;;;;;8.10;5.07;;;;;;;22.85;57.01;97211.50;5034981;28;20049;-62
2023/06/11 08:52:53;;;;;;;6.95;4.85;;;;;;;22.62;56.60;97220.09;5036799;28;20048;-62
2023/06/11 08:55:20;;;;;;;6.53;4.40;;;;;;;22.59;57.30;97215.28;5036546;28;20037;-61
2023/06/11 08:57:50;;;;;;;7.78;4.35;;;;;;;22.61;57.30;97215.75;5040283;28;20132;-62
2023/06/11 09:00:17;;;;;;;5.65;4.75;;;;;;;22.69;57.63;97211.28;5026638;28;20029;-61
2023/06/11 09:02:44;;;;;;;7.93;4.50;;;;;;;22.73;56.39;97213.06;5039425;28;20045;-61
2023/06/11 09:05:11;;;;;;;7.07;4.50;;;;;;;22.70;55.45;97213.72;5033280;28;20045;-62
2023/06/11 09:07:47;;;;;;;6.32;4.50;;;;;;;22.88;55.87;97218.31;5033846;28;20607;-62
2023/06/11 09:10:15;;;;;;;6.65;4.40;;;;;;;23.09;54.45;97216.34;5027367;28;20124;-62
2023/06/11 09:12:41;;;;;;;7.20;4.43;;;;;;;23.02;54.27;97218.00;5027291;28;20068;-61
2023/06/11 09:15:09;;;;;;;8.65;4.53;;;;;;;22.90;53.51;97207.72;5023611;28;20037;-62
2023/06/11 09:17:37;;;;;;;9.65;4.57;;;;;;;22.97;52.44;97208.00;5020083;28;20041;-62
2023/06/11 09:20:07;;;;;;;7.45;4.13;;;;;;;23.28;51.72;97205.94;5035227;28;20116;-61
2023/06/11 09:22:37;;;;;;;5.05;3.67;;;;;;;23.35;50.29;97208.97;5031785;28;20111;-61
2023/06/11 09:25:16;;;;;;;6.90;4.90;;;;;;;23.22;50.31;97210.88;5037767;28;20040;-62
2023/06/11 09:27:45;;;;;;;7.22;4.40;;;;;;;23.32;50.63;97209.59;5035103;28;20504;-62
2023/06/11 09:30:17;;;;;;;5.90;4.05;;;;;;;23.42;50.25;97205.66;5032916;28;20051;-62
2023/06/11 09:32:47;;;;;;;8.77;4.18;;;;;;;23.66;48.46;97204.09;5034363;28;20048;-62
2023/06/11 09:35:15;;;;;;;7.30;3.97;;;;;;;23.70;48.19;97211.34;5033602;28;20045;-62
2023/06/11 09:37:52;;;;;;;5.68;4.03;;;;;;;23.83;47.42;97214.13;5034178;28;20061;-63
2023/06/11 09:40:20;;;;;;;6.03;3.92;;;;;;;24.00;46.46;97215.88;5032668;28;20033;-63
2023/06/11 09:42:48;;;;;;;4.88;3.78;;;;;;;24.00;45.02;97205.59;5030241;28;20052;-62
2023/06/11 09:45:19;;;;;;;6.15;4.18;;;;;;;23.95;46.37;97205.84;5033998;28;20048;-61
2023/06/11 09:47:46;;;;;;;;;;;;;;;23.84;45.62;97208.25;5034245;28;20033;-62
2023/06/11 09:50:18;;;;;;;6.03;4.10;;;;;;;24.03;46.24;97202.16;5026396;28;20027;-62
2023/06/11 09:52:45;;;;;;;5.22;3.88;;;;;;;24.19;44.75;97206.22;5028263;28;20112;-62
2023/06/11 09:55:13;;;;;;;7.07;4.50;;;;;;;24.37;43.65;97204.84;5035277;28;20141;-61
2023/06/11 09:57:42;;;;;;;5.38;3.88;;;;;;;24.37;46.22;97195.72;5041863;28;20072;-61
2023/06/11 10:00:11;;;;;;;6.60;4.20;;;;;;;24.21;45.99;97201.94;5032248;28;20512;-62
2023/06/11 10:02:40;;;;;;;5.18;3.55;;;;;;;24.27;43.07;97208.88;5022758;28;20041;-62
2023/06/11 10:05:09;;;;;;;6.32;3.47;;;;;;;24.23;40.44;97207.97;5034849;28;20128;-61
2023/06/11 10:07:48;;;;;;;4.82;3.20;;;;;;;24.30;40.26;97199.06;5038275;28;20523;-61
2023/06/11 10:10:19;;;;;;;7.90;3.70;;;;;;;24.51;38.64;97201.69;5033480;28;20598;-61
2023/06/11 10:12:50;;;;;;;5.10;3.70;;;;;;;24.50;39.40;97200.06;5025328;28;20317;-61
2023/06/11 10:15:18;;;;;;;4.82;3.33;;;;;;;24.58;39.61;97198.31;5032702;28;20121;-61
2023/06/11 10:17:48;;;;;;;5.60;3.78;;;;;;;24.67;39.00;97198.19;5036279;28;20047;-61
2023/06/11 10:20:19;;;;;;;5.22;3.63;;;;;;;24.62;38.84;97199.25;5031982;28;20048;-61
2023/06/11 10:22:45;;;;;;;;;;;;;;;24.69;37.60;97195.88;5027132;28;20562;-61
2023/06/11 10:25:13;;;;;;;5.05;3.38;;;;;;;24.65;38.86;97195.78;5026530;28;19925;-62
2023/06/11 10:27:43;;;;;;;5.20;3.30;;;;;;;24.74;39.58;97201.19;5031747;28;20408;-62
2023/06/11 10:30:10;;;;;;;5.70;3.50;;;;;;;25.13;37.74;97200.72;5025010;28;20120;-63
2023/06/11 10:32:48;;;;;;;10.85;3.58;;;;;;;25.00;35.18;97207.47;5028440;28;20037;-61
2023/06/11 10:35:22;;;;;;;5.72;3.28;;;;;;;24.93;35.93;97208.88;5028447;28;20037;-62
2023/06/11 10:37:49;;;;;;;5.93;3.67;;;;;;;25.00;35.23;97193.63;5029003;28;20046;-62
2023/06/11 10:40:15;;;;;;;6.45;3.80;;;;;;;24.99;35.72;97198.34;5033001;28;20059;-62
2023/06/11 10:42:52;;;;;;;6.65;3.75;;;;;;;25.06;34.70;97203.31;5034934;28;20099;-63
2023/06/11 10:45:18;;;;;;;5.88;3.58;;;;;;;25.02;34.87;97205.97;5024936;28;20419;-62
2023/06/11 10:47:49;;;;;;;4.95;3.45;;;;;;;25.11;34.69;97193.91;5022583;28;20038;-63
2023/06/11 10:50:24;;;;;;;7.30;3.63;;;;;;;25.21;35.14;97196.19;5026287;28;20303;-63
2023/06/11 10:52:58;;;;;;;8.55;4.70;;;;;;;25.41;34.79;97188.00;5030256;28;20039;-62
2023/06/11 10:55:29;;;;;;;4.85;3.33;;;;;;;25.48;34.00;97193.75;5031720;28;20037;-62
2023/06/11 10:57:59;;;;;;;7.28;4.07;;;;;;;25.68;34.25;97193.88;5026391;28;20388;-62
2023/06/11 11:00:34;;;;;;;8.35;3.70;;;;;;;25.91;34.10;97196.03;5029207;28;20046;-62
2023/06/11 11:03:05;;;;;;;5.82;3.45;;;;;;;25.82;33.56;97207.28;5037193;28;20112;-62
2023/06/11 11:05:32;;;;;;;7.28;3.70;;;;;;;25.58;33.01;97198.78;5025763;28;20064;-63
2023/06/11 11:08:01;;;;;;;5.30;3.60;;;;;;;25.32;33.15;97180.66;5026461;28;20613;-62
2023/06/11 11:10:28;;;;;;;5.72;3.50;;;;;;;25.45;33.56;97184.19;5035479;28;20041;-62
2023/06/11 11:12:55;;;;;;;5.63;3.80;;;;;;;25.61;33.09;97194.47;5040370;28;20040;-61
2023/06/11 11:15:22;;;;;;;7.80;4.00;;;;;;;25.57;33.21;97194.41;5036999;28;20041;-63
2023/06/11 11:17:50;;;;;;;7.95;3.55;;;;;;;25.48;33.19;97190.16;5029519;28;20038;-63
2023/06/11 11:20:19;;;;;;;6.20;3.60;;;;;;;25.48;32.38;97190.16;5029749;28;20106;-62
2023/06/11 11:22:54;;;;;;;5.95;3.53;;;;;;;25.48;32.55;97182.66;5034251;28;20048;-61
2023/06/11 11:25:24;;;;;;;4.90;3.22;;;;;;;25.59;32.23;97180.19;5042950;28;20358;-62
2023/06/11 11:27:50;;;;;;;7.22;3.60;;;;;;;25.77;32.80;97172.34;5041371;28;20032;-62
2023/06/11 11:30:17;;;;;;;6.15;3.50;;;;;;;25.69;32.35;97182.41;5035798;28;20075;-62
2023/06/11 11:32:44;;;;;;;6.20;3.58;;;;;;;25.68;33.03;97174.44;5042729;28;20515;-62
2023/06/11 11:35:16;;;;;;;5.30;3.67;;;;;;;25.85;32.92;97167.75;5035195;28;20045;-62
2023/06/11 11:37:45;;;;;;;7.53;3.78;;;;;;;25.81;33.12;97177.97;5028011;28;20447;-61